Aviation Digital Data Service (ADDS)

Output produced by TAFs form (1440 UTC 24 October 2014)
found at http://aviationweather.gov/adds/tafs/
 
KLND 241123Z 2412/2512 VRB05KT P6SM FEW120 BKN250 WS020/25035KT 
     FM241900 24010KT P6SM SCT250 
     FM250500 VRB05KT P6SM SKC